Portada
METAR-TAF:

METAR-TAF

Aeroports :

Mason City, Iowa, Estats Units d'Amèrica

Mason City Municipal Airport

latitud: 43-09-28N, longitud: 093-19-53W, altitud: 370 m

Observació

L'informe es va fer fa 9 minuts, a les 04:53 UTC
Vent 11 kt del Nord
Temperatura 8°C
Humitat 76%
Pressió 1023 hPa
Visibilitat: 16.1 km
Cel clar

METAR: KMCW 250453Z AUTO 36011KT 10SM CLR 08/04 A3020 RMK AO2 SLP222 T00780039

Hora: 00:02 (05:02 UTC)

Pronòstic

L'informe es va fer fa 5 hores i 24 minuts, a les 23:38 UTC
Pronòstic vàlid del 25 a les 00 UTC al 25 a les 24 UTC
Vent 21 kt del Nord/Nord-Oest amb ràfegues de 27 kt
Visibilitat: 10 km
Cel cobert a una alçada de 10000 ft
A partir de les 25 a les 0500 UTC
Vent 9 kt del Nord
Visibilitat: 10 km
Cel ennuvolat a una alçada de 10000 ft
A partir de les 25 a les 2300 UTC
Vent 4 kt del Nord/Nord-Oest
Visibilitat: 10 km
Cel clar

TAF: KMCW 242338Z 2500/2524 34021G27KT P6SM OVC100 FM250500 35009KT P6SM BKN100 FM252300 33004KT P6SM SKC

Observacions i pronòstics meteorològics de més de 4000 aeroports (METAR i TAF).

Les estacions disponibles són els punts grocs i vermells al mapa.

Posi el ratolí al punt desitjat per veure el nom de l'estació.

Feu clic per veure les observacions i els pronòstics meteorològics.

Per canviar el mapa: feu clic els botons verds amb una creu de color negre per apropar; al botó verd amb un guió per allunyar la imatge; o en les fletxes verdes per a mapes adjacents.


METAR-TAF: